Terminal Aerodrome Forecast
Issued by NWS

Home | Current Version | Previous Version | Text Only | Print | Product List | Glossary On
Versions: 1 2 3 4 5 6 7 8 9 10 11 12 13 14 15 16 17
217
FTUS41 KCAR 192320
TAFPQI
TAF
KPQI 192320Z 2000/2024 VRB03KT P6SM VCSH OVC050
     FM200300 36005KT P6SM VCSH OVC015
     FM200700 36005KT 3SM -SN OVC003
     FM201400 36008KT P6SM VCSH OVC008
     FM201700 35010G20KT P6SM OVC025=

USA.gov is the U.S. government's official web portal to all federal, state and local government web resources and services.